Welcome to Northern Hawkes Bay. New Zealand.
PWS Header
      nz Flag



Hit Counter


W3C Valid W3C Valid logo


    Wairoa

Select any of the Stations below to visit their websites.










Historic Data from Weather Underground
Select the location of interest below. Wairoa is the default. Please have patience, this Data is slow to load in.
Northern Hawkes Bay Historical Data
Daily Summary for July 18, 2017 Units:  Metric    English   Both
« Previous Day
Next Day »
Daily Weekly Monthly Yearly Custom
  High: Low: Average:
Temperature: 13.8 °C 8.7 °C 10.4 °C
Dew Point: 11.2 °C 7.0 °C 9 °C
Humidity: 99% 75% 91%
Wind Speed: 14.8km/h 0.0km/h 2.9km/h
Wind Gust: 21.9km/h - -
Wind- - WSW
Pressure: 1021.2 hPa 1018.5 hPa -
Precipitation: 1.3 mm    
Historical Graphs
 
 
Tabular Data for July 18, 2017
Time Temperature Dew Point Pressure Wind Wind Speed Wind Gust Humidity Rainfall Rate (Hourly) solar
00:03 10.3 °C 7.0 °C 1019.5 hPa West 1.1 km/h 11.1 km/h 80% 0.0 mm 0 W/m2
00:08 10.3 °C 7.0 °C 1019.5 hPa SW 1.1 km/h 3.5 km/h 80% 0.0 mm 0 W/m2
00:13 10.3 °C 7.0 °C 1019.5 hPa Calm   3.5 km/h 80% 0.0 mm 0 W/m2
00:18 10.4 °C 7.3 °C 1019.2 hPa SSW 9.7 km/h 12.2 km/h 81% 0.0 mm 0 W/m2
00:23 11.2 °C 7.9 °C 1019.5 hPa SW 5.0 km/h 12.2 km/h 80% 0.0 mm 0 W/m2
00:28 11.5 °C 7.8 °C 1019.5 hPa SW 2.6 km/h 12.2 km/h 78% 0.0 mm 0 W/m2
00:33 10.9 °C 7.2 °C 1019.5 hPa WNW 3.5 km/h 9.7 km/h 78% 0.0 mm 0 W/m2
00:38 10.8 °C 7.5 °C 1019.2 hPa WNW 1.1 km/h 9.7 km/h 80% 0.0 mm 0 W/m2
00:43 10.6 °C 7.5 °C 1019.2 hPa SSW 6.1 km/h 7.2 km/h 81% 0.0 mm 0 W/m2
00:48 10.9 °C 8.1 °C 1019.2 hPa SSW 2.6 km/h 7.2 km/h 83% 0.0 mm 0 W/m2
00:53 10.9 °C 8.1 °C 1019.2 hPa West 1.1 km/h 7.2 km/h 83% 0.0 mm 0 W/m2
00:58 11.2 °C 8.6 °C 1018.8 hPa SSW 7.2 km/h 13.4 km/h 84% 0.0 mm 0 W/m2
01:03 11.2 °C 8.4 °C 1018.8 hPa South 2.6 km/h 13.4 km/h 83% 0.0 mm 0 W/m2
01:08 11.2 °C 8.6 °C 1019.2 hPa South 3.5 km/h 11.1 km/h 84% 0.0 mm 0 W/m2
01:13 11.2 °C 8.6 °C 1019.2 hPa SSW 7.2 km/h 9.7 km/h 84% 0.0 mm 0 W/m2
01:18 11.1 °C 8.7 °C 1019.2 hPa South 5.0 km/h 9.7 km/h 85% 0.0 mm 0 W/m2
01:23 11.1 °C 8.7 °C 1018.8 hPa SSE 1.1 km/h 7.2 km/h 85% 0.0 mm 0 W/m2
01:28 10.9 °C 8.7 °C 1018.8 hPa NE 3.5 km/h 7.2 km/h 86% 0.0 mm 0 W/m2
01:33 10.5 °C 8.1 °C 1018.8 hPa NE 2.6 km/h 6.1 km/h 85% 0.0 mm 0 W/m2
01:38 10.3 °C 7.9 °C 1019.2 hPa Calm   5.0 km/h 85% 0.0 mm 0 W/m2
01:43 10.3 °C 8.1 °C 1019.2 hPa Calm   3.5 km/h 86% 0.0 mm 0 W/m2
01:48 10.3 °C 8.2 °C 1019.2 hPa Calm   3.5 km/h 87% 0.0 mm 0 W/m2
01:53 10.3 °C 8.2 °C 1018.8 hPa ESE 3.5 km/h 5.0 km/h 87% 0.0 mm 0 W/m2
01:58 10.5 °C 8.8 °C 1019.2 hPa SSE 3.5 km/h 6.1 km/h 89% 0.0 mm 0 W/m2
02:04 10.6 °C 9.1 °C 1019.2 hPa South 2.6 km/h 6.1 km/h 90% 0.0 mm 0 W/m2
02:09 10.6 °C 9.2 °C 1019.2 hPa SSW 2.6 km/h 6.1 km/h 91% 0.0 mm 0 W/m2
02:14 10.4 °C 8.8 °C 1019.2 hPa Calm   3.5 km/h 90% 0.0 mm 0 W/m2
02:19 10.3 °C 8.7 °C 1019.2 hPa Calm   3.5 km/h 90% 0.0 mm 0 W/m2
02:24 10.2 °C 8.6 °C 1019.2 hPa NNE 1.1 km/h 2.6 km/h 90% 0.0 mm 0 W/m2
02:29 10.1 °C 8.6 °C 1019.2 hPa Calm   2.6 km/h 90% 0.0 mm 0 W/m2
02:34 9.9 °C 8.5 °C 1019.5 hPa North 2.6 km/h 6.1 km/h 91% 0.0 mm 0 W/m2
02:39 9.6 °C 8.2 °C 1019.2 hPa NNW 1.1 km/h 6.1 km/h 91% 0.0 mm 0 W/m2
02:44 9.4 °C 8.0 °C 1019.2 hPa NW 1.1 km/h 3.5 km/h 91% 0.0 mm 0 W/m2
02:49 9.2 °C 7.8 °C 1019.2 hPa Calm   2.6 km/h 91% 0.0 mm 0 W/m2
02:54 9.2 °C 7.8 °C 1019.2 hPa Calm   2.6 km/h 91% 0.0 mm 0 W/m2
02:59 9.1 °C 7.7 °C 1019.2 hPa North 2.6 km/h 5.0 km/h 91% 0.0 mm 0 W/m2
03:04 9.0 °C 7.6 °C 1018.8 hPa NW 2.6 km/h 5.0 km/h 91% 0.0 mm 0 W/m2
03:09 9.0 °C 7.6 °C 1019.2 hPa NNW 3.5 km/h 5.0 km/h 91% 0.0 mm 0 W/m2
03:14 9.0 °C 7.8 °C 1018.8 hPa Calm   6.1 km/h 92% 0.0 mm 0 W/m2
03:19 9.0 °C 7.8 °C 1019.2 hPa North 2.6 km/h 6.1 km/h 92% 0.0 mm 0 W/m2
03:24 9.0 °C 7.8 °C 1018.8 hPa SSW 1.1 km/h 3.5 km/h 92% 0.0 mm 0 W/m2
03:29 8.9 °C 7.8 °C 1019.2 hPa Calm   3.5 km/h 93% 0.0 mm 0 W/m2
03:34 9.0 °C 7.9 °C 1019.2 hPa Calm   3.5 km/h 93% 0.0 mm 0 W/m2
03:39 9.3 °C 8.4 °C 1018.8 hPa SW 6.1 km/h 7.2 km/h 94% 0.0 mm 0 W/m2
03:44 9.7 °C 8.8 °C 1019.2 hPa SW 5.0 km/h 11.1 km/h 94% 0.0 mm 0 W/m2
03:49 10.1 °C 9.2 °C 1018.8 hPa SW 3.5 km/h 11.1 km/h 94% 0.0 mm 0 W/m2
03:54 10.3 °C 9.4 °C 1018.8 hPa SW 7.2 km/h 11.1 km/h 94% 0.0 mm 0 W/m2
03:59 10.4 °C 9.6 °C 1019.2 hPa SW 9.7 km/h 14.8 km/h 95% 0.0 mm 0 W/m2
04:04 10.5 °C 9.7 °C 1018.8 hPa SW 6.1 km/h 14.8 km/h 95% 0.0 mm 0 W/m2
04:09 10.5 °C 9.7 °C 1018.8 hPa SW 13.4 km/h 17.2 km/h 95% 0.0 mm 0 W/m2
04:14 10.5 °C 9.7 °C 1019.2 hPa SW 14.8 km/h 18.3 km/h 95% 0.0 mm 0 W/m2
04:19 10.4 °C 9.6 °C 1018.8 hPa SW 14.8 km/h 20.9 km/h 95% 0.0 mm 0 W/m2
04:24 10.2 °C 9.4 °C 1019.2 hPa SW 12.2 km/h 20.9 km/h 95% 0.0 mm 0 W/m2
04:29 10.1 °C 9.3 °C 1018.8 hPa WSW 13.4 km/h 20.9 km/h 95% 0.0 mm 0 W/m2
04:34 10.0 °C 9.2 °C 1019.2 hPa WSW 7.2 km/h 21.9 km/h 95% 0.0 mm 0 W/m2
04:39 10.0 °C 9.2 °C 1019.2 hPa SW 11.1 km/h 21.9 km/h 95% 0.0 mm 0 W/m2
04:44 9.9 °C 9.3 °C 1019.2 hPa SW 13.4 km/h 17.2 km/h 96% 0.0 mm 0 W/m2
04:49 9.8 °C 9.2 °C 1018.8 hPa SW 9.7 km/h 17.2 km/h 96% 0.0 mm 0 W/m2
04:54 9.8 °C 9.3 °C 1018.8 hPa SW 6.1 km/h 17.2 km/h 97% 0.0 mm 0 W/m2
04:59 9.8 °C 9.3 °C 1019.2 hPa SW 6.1 km/h 15.8 km/h 97% 0.0 mm 0 W/m2
05:04 9.8 °C 9.3 °C 1018.8 hPa SW 5.0 km/h 13.4 km/h 97% 0.0 mm 0 W/m2
05:09 9.8 °C 9.3 °C 1018.8 hPa SW 7.2 km/h 13.4 km/h 97% 0.0 mm 0 W/m2
05:14 9.6 °C 9.2 °C 1018.8 hPa WSW 3.5 km/h 13.4 km/h 97% 0.0 mm 0 W/m2
05:19 9.6 °C 9.2 °C 1018.8 hPa WSW 3.5 km/h 13.4 km/h 97% 0.0 mm 0 W/m2
05:24 9.5 °C 9.1 °C 1018.8 hPa SW 1.1 km/h 7.2 km/h 97% 0.0 mm 0 W/m2
05:29 9.5 °C 9.1 °C 1019.2 hPa WSW 2.6 km/h 6.1 km/h 97% 0.0 mm 0 W/m2
05:34 9.5 °C 9.1 °C 1018.8 hPa Calm   3.5 km/h 97% 0.0 mm 0 W/m2
05:39 9.5 °C 9.1 °C 1019.2 hPa Calm   3.5 km/h 97% 0.3 mm 0 W/m2
05:44 9.5 °C 9.1 °C 1019.2 hPa Calm   2.6 km/h 97% 0.3 mm 0 W/m2
05:49 9.6 °C 9.2 °C 1019.2 hPa Calm   2.6 km/h 97% 0.3 mm 0 W/m2
05:54 9.5 °C 9.1 °C 1019.2 hPa Calm   2.6 km/h 97% 0.3 mm 0 W/m2
05:59 9.5 °C 9.1 °C 1019.2 hPa Calm   2.6 km/h 97% 0.5 mm 0 W/m2
06:04 9.5 °C 9.1 °C 1019.2 hPa NNE 1.1 km/h 2.6 km/h 97% 0.5 mm 0 W/m2
06:09 9.4 °C 8.9 °C 1019.2 hPa Calm   2.6 km/h 97% 0.5 mm 0 W/m2
06:14 9.4 °C 8.9 °C 1019.2 hPa NE 1.1 km/h 3.5 km/h 97% 0.5 mm 0 W/m2
06:19 9.4 °C 8.9 °C 1019.2 hPa Calm   3.5 km/h 97% 0.5 mm 0 W/m2
06:24 9.3 °C 8.8 °C 1019.2 hPa Calm   3.5 km/h 97% 0.5 mm 0 W/m2
06:29 9.3 °C 8.8 °C 1019.5 hPa North 1.1 km/h 3.5 km/h 97% 0.5 mm 0 W/m2
06:34 9.2 °C 8.8 °C 1019.5 hPa NNW 1.1 km/h 2.6 km/h 97% 0.5 mm 0 W/m2
06:39 9.2 °C 8.8 °C 1019.5 hPa NNW 1.1 km/h 2.6 km/h 97% 0.5 mm 0 W/m2
06:44 9.2 °C 8.8 °C 1019.5 hPa NNW 1.1 km/h 2.6 km/h 97% 0.5 mm 0 W/m2
06:49 9.2 °C 8.8 °C 1019.5 hPa Calm   2.6 km/h 97% 0.5 mm 0 W/m2
06:54 9.2 °C 8.8 °C 1019.5 hPa Calm   2.6 km/h 97% 0.5 mm 0 W/m2
06:59 9.1 °C 8.8 °C 1019.9 hPa Calm   2.6 km/h 98% 0.3 mm 0 W/m2
07:04 9.1 °C 8.8 °C 1019.9 hPa Calm   1.1 km/h 98% 0.3 mm 0 W/m2
07:09 9.1 °C 8.8 °C 1019.5 hPa Calm     98% 0.3 mm 0 W/m2
07:14 9.1 °C 8.8 °C 1019.9 hPa Calm     98% 0.3 mm 0 W/m2
07:19 9.1 °C 8.8 °C 1019.9 hPa Calm   1.1 km/h 98% 0.3 mm 0 W/m2
07:24 9.0 °C 8.7 °C 1019.9 hPa NNW 2.6 km/h 3.5 km/h 98% 0.3 mm 0 W/m2
07:29 9.0 °C 8.7 °C 1019.9 hPa North 2.6 km/h 3.5 km/h 98% 0.5 mm 0 W/m2
07:34 9.0 °C 8.7 °C 1019.9 hPa North 1.1 km/h 5.0 km/h 98% 0.3 mm 0 W/m2
07:39 9.0 °C 8.7 °C 1020.2 hPa NNW 2.6 km/h 5.0 km/h 98% 0.3 mm 0 W/m2
07:44 8.9 °C 8.8 °C 1019.9 hPa Calm   5.0 km/h 99% 0.3 mm 0 W/m2
07:49 8.9 °C 8.8 °C 1020.2 hPa NW 2.6 km/h 3.5 km/h 99% 0.3 mm 0 W/m2
07:55 8.9 °C 8.8 °C 1020.2 hPa NNW 2.6 km/h 3.5 km/h 99% 0.3 mm 0 W/m2
08:00 8.9 °C 8.8 °C 1020.2 hPa NNW 1.1 km/h 3.5 km/h 99% 0.3 mm 0 W/m2
08:06 8.9 °C 8.8 °C 1020.2 hPa NNW 2.6 km/h 3.5 km/h 99% 0.3 mm 0 W/m2
08:11 8.9 °C 8.8 °C 1020.2 hPa Calm   3.5 km/h 99% 0.3 mm 0 W/m2
08:16 8.9 °C 8.8 °C 1020.2 hPa Calm   3.5 km/h 99% 0.3 mm 0 W/m2
08:21 8.9 °C 8.8 °C 1020.2 hPa NW 1.1 km/h 2.6 km/h 99% 0.3 mm 0 W/m2
08:26 8.9 °C 8.8 °C 1020.2 hPa NW 2.6 km/h 3.5 km/h 99% 0.0 mm 0 W/m2
08:31 8.9 °C 8.8 °C 1020.5 hPa Calm   3.5 km/h 99% 0.0 mm 1 W/m2
08:36 8.9 °C 8.8 °C 1020.5 hPa NNW 1.1 km/h 3.5 km/h 99% 0.0 mm 2 W/m2
08:41 9.0 °C 8.8 °C 1020.5 hPa Calm   2.6 km/h 99% 0.0 mm 4 W/m2
08:46 9.0 °C 8.8 °C 1020.5 hPa Calm   2.6 km/h 99% 0.0 mm 6 W/m2
08:52 9.1 °C 8.9 °C 1020.9 hPa Calm   1.1 km/h 99% 0.0 mm 8 W/m2
08:57 9.1 °C 8.9 °C 1020.5 hPa Calm   2.6 km/h 99% 0.0 mm 11 W/m2
09:02 9.2 °C 9.1 °C 1020.9 hPa Calm   2.6 km/h 99% 0.0 mm 27 W/m2
09:08 9.3 °C 9.2 °C 1020.9 hPa Calm   1.1 km/h 99% 0.0 mm 24 W/m2
09:13 9.3 °C 9.2 °C 1020.5 hPa Calm     99% 0.0 mm 28 W/m2
09:18 9.4 °C 9.3 °C 1020.9 hPa Calm     99% 0.0 mm 33 W/m2
09:23 9.4 °C 9.3 °C 1020.9 hPa NNW 2.6 km/h 5.0 km/h 99% 0.0 mm 34 W/m2
09:28 9.4 °C 9.3 °C 1020.9 hPa North 1.1 km/h 5.0 km/h 99% 0.0 mm 46 W/m2
09:33 9.5 °C 9.3 °C 1020.9 hPa NNW 5.0 km/h 6.1 km/h 99% 0.0 mm 52 W/m2
09:38 9.6 °C 9.4 °C 1020.9 hPa NNW 6.1 km/h 7.2 km/h 99% 0.0 mm 69 W/m2
09:43 9.6 °C 9.4 °C 1020.9 hPa NNW 5.0 km/h 7.2 km/h 99% 0.0 mm 84 W/m2
09:48 9.8 °C 9.7 °C 1020.9 hPa NW 5.0 km/h 8.7 km/h 99% 0.0 mm 73 W/m2
09:53 9.8 °C 9.7 °C 1020.9 hPa NW 5.0 km/h 8.7 km/h 99% 0.0 mm 75 W/m2
09:58 9.8 °C 9.7 °C 1021.2 hPa NW 3.5 km/h 8.7 km/h 99% 0.0 mm 73 W/m2
10:03 9.8 °C 9.7 °C 1021.2 hPa NW 6.1 km/h 8.7 km/h 99% 0.0 mm 77 W/m2
10:04 9.9 °C 9.8 °C 1020.9 hPa NW 2.6 km/h 8.7 km/h 99% 0.0 mm 78 W/m2
10:09 9.9 °C 9.8 °C 1020.9 hPa NW 3.5 km/h 8.7 km/h 99% 0.0 mm 94 W/m2
10:15 10.1 °C 9.9 °C 1021.2 hPa NW 3.5 km/h 7.2 km/h 99% 0.0 mm 135 W/m2
10:20 10.3 °C 10.2 °C 1021.2 hPa NW 5.0 km/h 7.2 km/h 99% 0.0 mm 156 W/m2
10:25 10.4 °C 10.3 °C 1021.2 hPa NNW 5.0 km/h 7.2 km/h 99% 0.0 mm 119 W/m2
10:30 10.4 °C 10.3 °C 1021.2 hPa NNW 3.5 km/h 8.7 km/h 99% 0.0 mm 109 W/m2
10:35 10.4 °C 10.3 °C 1021.2 hPa NNW 5.0 km/h 8.7 km/h 99% 0.0 mm 123 W/m2
10:40 10.5 °C 10.3 °C 1021.2 hPa NW 3.5 km/h 8.7 km/h 99% 0.0 mm 125 W/m2
10:45 10.7 °C 10.6 °C 1020.9 hPa NW 3.5 km/h 8.7 km/h 99% 0.0 mm 160 W/m2
10:50 10.8 °C 10.7 °C 1021.2 hPa NNW 2.6 km/h 6.1 km/h 99% 0.0 mm 141 W/m2
10:55 10.9 °C 10.8 °C 1020.9 hPa NW 3.5 km/h 8.7 km/h 99% 0.0 mm 116 W/m2
11:00 11.0 °C 10.7 °C 1020.9 hPa NW 3.5 km/h 8.7 km/h 98% 0.0 mm 124 W/m2
11:05 11.1 °C 10.8 °C 1020.9 hPa NW 3.5 km/h 6.1 km/h 98% 0.0 mm 131 W/m2
11:10 11.3 °C 10.8 °C 1020.9 hPa NW 2.6 km/h 6.1 km/h 97% 0.0 mm 119 W/m2
11:15 11.3 °C 10.8 °C 1020.9 hPa NW 3.5 km/h 6.1 km/h 97% 0.0 mm 125 W/m2
11:20 11.4 °C 10.8 °C 1020.9 hPa NW 3.5 km/h 7.2 km/h 96% 0.0 mm 142 W/m2
11:25 11.7 °C 10.9 °C 1020.9 hPa NW 1.1 km/h 7.2 km/h 95% 0.0 mm 163 W/m2
11:30 11.9 °C 10.9 °C 1020.9 hPa NW 1.1 km/h 6.1 km/h 94% 0.0 mm 152 W/m2
11:35 12.0 °C 10.7 °C 1020.5 hPa Calm   5.0 km/h 92% 0.0 mm 146 W/m2
11:40 12.3 °C 11.1 °C 1020.5 hPa West 2.6 km/h 5.0 km/h 92% 0.0 mm 157 W/m2
11:45 12.6 °C 11.2 °C 1020.5 hPa NW 3.5 km/h 5.0 km/h 91% 0.0 mm 145 W/m2
11:50 12.5 °C 10.6 °C 1020.5 hPa NW 1.1 km/h 7.2 km/h 88% 0.0 mm 175 W/m2
11:55 12.7 °C 10.4 °C 1020.2 hPa NW 2.6 km/h 7.2 km/h 86% 0.0 mm 170 W/m2
12:00 12.7 °C 10.1 °C 1020.2 hPa WNW 3.5 km/h 6.1 km/h 84% 0.0 mm 212 W/m2
12:05 13.2 °C 10.7 °C 1020.2 hPa West 1.1 km/h 6.1 km/h 85% 0.0 mm 187 W/m2
12:10 13.8 °C 10.8 °C 1020.2 hPa Calm   5.0 km/h 82% 0.0 mm 162 W/m2
12:15 13.6 °C 10.2 °C 1020.2 hPa Calm   3.5 km/h 80% 0.0 mm 156 W/m2
12:20 13.4 °C 9.8 °C 1019.9 hPa NW 3.5 km/h 5.0 km/h 79% 0.0 mm 169 W/m2
12:25 13.2 °C 9.7 °C 1019.9 hPa Calm   5.0 km/h 79% 0.0 mm 170 W/m2
12:30 13.6 °C 10.1 °C 1019.5 hPa NE 2.6 km/h 6.1 km/h 79% 0.0 mm 186 W/m2
12:35 13.5 °C 9.7 °C 1019.9 hPa SSE 3.5 km/h 6.1 km/h 78% 0.0 mm 176 W/m2
12:40 13.3 °C 9.6 °C 1019.5 hPa SSW 5.0 km/h 7.2 km/h 78% 0.0 mm 176 W/m2
12:45 13.2 °C 9.8 °C 1019.5 hPa SSW 2.6 km/h 8.7 km/h 80% 0.0 mm 131 W/m2
12:50 13.2 °C 10.0 °C 1019.5 hPa SSW 5.0 km/h 8.7 km/h 81% 0.0 mm 109 W/m2
12:55 12.9 °C 9.9 °C 1019.2 hPa SSW 6.1 km/h 7.2 km/h 82% 0.0 mm 142 W/m2
13:14 12.2 °C 9.6 °C 1018.8 hPa SSW 5.0 km/h 11.1 km/h 84% 0.0 mm 139 W/m2
13:19 12.0 °C 9.4 °C 1018.8 hPa South 5.0 km/h 11.1 km/h 84% 0.0 mm 138 W/m2
13:24 12.0 °C 9.4 °C 1019.2 hPa South 6.1 km/h 11.1 km/h 84% 0.0 mm 119 W/m2
13:29 11.9 °C 9.3 °C 1018.8 hPa South 5.0 km/h 8.7 km/h 84% 0.0 mm 113 W/m2
13:34 11.8 °C 9.0 °C 1019.2 hPa SSW 5.0 km/h 8.7 km/h 83% 0.0 mm 119 W/m2
13:39 11.8 °C 9.0 °C 1018.8 hPa SSW 6.1 km/h 8.7 km/h 83% 0.0 mm 128 W/m2
13:44 11.8 °C 8.8 °C 1018.8 hPa South 6.1 km/h 8.7 km/h 82% 0.0 mm 128 W/m2
13:49 11.9 °C 8.9 °C 1018.8 hPa South 6.1 km/h 9.7 km/h 82% 0.0 mm 123 W/m2
13:54 11.8 °C 8.4 °C 1018.8 hPa South 3.5 km/h 9.7 km/h 80% 0.0 mm 135 W/m2
13:59 12.0 °C 8.8 °C 1018.8 hPa South 5.0 km/h 8.7 km/h 81% 0.0 mm 151 W/m2
14:04 12.2 °C 9.1 °C 1018.5 hPa South 5.0 km/h 8.7 km/h 81% 0.0 mm 147 W/m2
14:09 12.6 °C 9.1 °C 1018.5 hPa South 5.0 km/h 8.7 km/h 79% 0.0 mm 152 W/m2
14:14 12.9 °C 8.9 °C 1018.5 hPa South 5.0 km/h 8.7 km/h 77% 0.0 mm 143 W/m2
14:19 13.0 °C 8.7 °C 1018.5 hPa South 6.1 km/h 9.7 km/h 75% 0.0 mm 193 W/m2
14:25 13.2 °C 8.9 °C 1018.5 hPa South 7.2 km/h 11.1 km/h 75% 0.0 mm 173 W/m2
14:30 13.0 °C 8.9 °C 1018.8 hPa South 3.5 km/h 11.1 km/h 76% 0.0 mm 118 W/m2
14:35 12.6 °C 8.3 °C 1018.8 hPa South 6.1 km/h 9.7 km/h 75% 0.0 mm 120 W/m2
14:40 12.2 °C 8.3 °C 1018.8 hPa South 3.5 km/h 8.7 km/h 77% 0.0 mm 92 W/m2
14:45 12.0 °C 8.3 °C 1018.8 hPa South 5.0 km/h 8.7 km/h 78% 0.0 mm 71 W/m2
15:05 11.5 °C 8.6 °C 1018.8 hPa South 5.0 km/h 8.7 km/h 82% 0.0 mm 87 W/m2
15:10 11.6 °C 8.6 °C 1018.5 hPa South 6.1 km/h 8.7 km/h 82% 0.0 mm 77 W/m2
15:15 11.5 °C 8.6 °C 1018.8 hPa South 5.0 km/h 8.7 km/h 82% 0.0 mm 87 W/m2
15:20 11.6 °C 8.6 °C 1018.8 hPa South 8.7 km/h 9.7 km/h 82% 0.0 mm 82 W/m2
15:25 11.6 °C 8.6 °C 1018.8 hPa South 7.2 km/h 9.7 km/h 82% 0.0 mm 79 W/m2
15:30 11.5 °C 8.6 °C 1018.8 hPa South 7.2 km/h 9.7 km/h 82% 0.0 mm 69 W/m2
15:35 11.4 °C 8.6 °C 1018.8 hPa South 6.1 km/h 9.7 km/h 83% 0.0 mm 62 W/m2
15:40 11.4 °C 8.6 °C 1018.5 hPa South 6.1 km/h 8.7 km/h 83% 0.0 mm 59 W/m2
15:45 11.5 °C 8.7 °C 1018.8 hPa South 2.6 km/h 8.7 km/h 83% 0.0 mm 63 W/m2
15:50 11.6 °C 8.8 °C 1018.8 hPa South 3.5 km/h 7.2 km/h 83% 0.0 mm 70 W/m2
15:55 11.6 °C 8.8 °C 1018.8 hPa South 5.0 km/h 7.2 km/h 83% 0.0 mm 59 W/m2
16:00 11.6 °C 8.8 °C 1018.8 hPa South 2.6 km/h 7.2 km/h 83% 0.0 mm 43 W/m2
16:05 11.7 °C 8.9 °C 1018.8 hPa South 1.1 km/h 6.1 km/h 83% 0.0 mm 40 W/m2
16:10 11.6 °C 8.6 °C 1018.8 hPa South 2.6 km/h 6.1 km/h 82% 0.0 mm 33 W/m2
16:15 11.5 °C 8.6 °C 1018.8 hPa South 5.0 km/h 7.2 km/h 82% 0.0 mm 30 W/m2
16:20 11.4 °C 8.4 °C 1018.8 hPa South 3.5 km/h 7.2 km/h 82% 0.0 mm 32 W/m2
16:25 11.4 °C 8.6 °C 1018.8 hPa South 2.6 km/h 6.1 km/h 83% 0.0 mm 28 W/m2
16:30 11.4 °C 8.6 °C 1018.8 hPa South 3.5 km/h 6.1 km/h 83% 0.0 mm 20 W/m2
16:35 11.3 °C 8.5 °C 1018.8 hPa South 2.6 km/h 5.0 km/h 83% 0.0 mm 14 W/m2
16:40 11.3 °C 8.7 °C 1019.2 hPa South 3.5 km/h 6.1 km/h 84% 0.0 mm 12 W/m2
16:45 11.2 °C 8.6 °C 1019.2 hPa SSW 5.0 km/h 7.2 km/h 84% 0.0 mm 9 W/m2
16:50 11.1 °C 8.7 °C 1019.2 hPa SSW 2.6 km/h 7.2 km/h 85% 0.0 mm 6 W/m2
16:55 11.1 °C 8.7 °C 1019.2 hPa South 3.5 km/h 6.1 km/h 85% 0.0 mm 3 W/m2
17:00 10.9 °C 8.8 °C 1019.2 hPa South 2.6 km/h 6.1 km/h 87% 0.0 mm 1 W/m2
17:05 10.9 °C 9.0 °C 1019.2 hPa South 2.6 km/h 6.1 km/h 88% 0.0 mm 0 W/m2
17:10 10.9 °C 9.0 °C 1018.8 hPa South 2.6 km/h 6.1 km/h 88% 0.0 mm 0 W/m2
17:15 10.8 °C 9.1 °C 1018.8 hPa South 2.6 km/h 6.1 km/h 89% 0.0 mm 0 W/m2
17:20 10.8 °C 9.1 °C 1019.2 hPa South 1.1 km/h 3.5 km/h 89% 0.0 mm 0 W/m2
17:25 10.7 °C 8.9 °C 1018.8 hPa South 1.1 km/h 3.5 km/h 89% 0.0 mm 0 W/m2
17:30 10.7 °C 9.1 °C 1018.8 hPa Calm   3.5 km/h 90% 0.0 mm 0 W/m2
17:35 10.6 °C 9.1 °C 1019.2 hPa Calm   1.1 km/h 90% 0.0 mm 0 W/m2
17:40 10.6 °C 9.1 °C 1019.2 hPa Calm   1.1 km/h 90% 0.0 mm 0 W/m2
17:45 10.6 °C 9.1 °C 1019.2 hPa Calm   2.6 km/h 90% 0.0 mm 0 W/m2
17:50 10.6 °C 9.1 °C 1019.2 hPa Calm   2.6 km/h 90% 0.0 mm 0 W/m2
17:55 10.5 °C 8.9 °C 1019.2 hPa Calm   1.1 km/h 90% 0.0 mm 0 W/m2
18:00 10.5 °C 8.9 °C 1019.2 hPa Calm   1.1 km/h 90% 0.0 mm 0 W/m2
18:05 10.5 °C 8.9 °C 1019.2 hPa Calm   2.6 km/h 90% 0.0 mm 0 W/m2
18:10 10.5 °C 8.9 °C 1019.2 hPa Calm   2.6 km/h 90% 0.0 mm 0 W/m2
18:15 10.5 °C 8.9 °C 1019.2 hPa Calm   3.5 km/h 90% 0.0 mm 0 W/m2
18:20 10.5 °C 8.9 °C 1019.5 hPa SW 2.6 km/h 3.5 km/h 90% 0.0 mm 0 W/m2
18:25 10.5 °C 8.9 °C 1019.5 hPa Calm   5.0 km/h 90% 0.0 mm 0 W/m2
18:30 10.5 °C 8.9 °C 1019.5 hPa Calm   5.0 km/h 90% 0.0 mm 0 W/m2
18:35 10.5 °C 8.9 °C 1019.5 hPa NW 1.1 km/h 3.5 km/h 90% 0.0 mm 0 W/m2
18:40 10.5 °C 8.9 °C 1019.5 hPa Calm   3.5 km/h 90% 0.0 mm 0 W/m2
18:45 10.5 °C 8.9 °C 1019.5 hPa Calm   2.6 km/h 90% 0.0 mm 0 W/m2
18:50 10.5 °C 8.9 °C 1019.5 hPa Calm   1.1 km/h 90% 0.0 mm 0 W/m2
18:55 10.5 °C 8.9 °C 1019.5 hPa North 1.1 km/h 2.6 km/h 90% 0.0 mm 0 W/m2
19:00 10.5 °C 8.9 °C 1019.9 hPa Calm   2.6 km/h 90% 0.0 mm 0 W/m2
19:05 10.4 °C 8.8 °C 1019.5 hPa Calm   2.6 km/h 90% 0.0 mm 0 W/m2
19:10 10.4 °C 9.0 °C 1019.9 hPa NW 1.1 km/h 3.5 km/h 91% 0.0 mm 0 W/m2
19:15 10.4 °C 9.0 °C 1019.9 hPa NW 2.6 km/h 3.5 km/h 91% 0.0 mm 0 W/m2
19:20 10.4 °C 9.0 °C 1019.5 hPa Calm   3.5 km/h 91% 0.0 mm 0 W/m2
19:25 10.3 °C 8.9 °C 1019.9 hPa Calm   3.5 km/h 91% 0.0 mm 0 W/m2
19:29 10.3 °C 8.9 °C 1019.9 hPa NW 1.1 km/h 3.5 km/h 91% 0.0 mm 0 W/m2
19:34 10.3 °C 8.9 °C 1019.9 hPa Calm   3.5 km/h 91% 0.0 mm 0 W/m2
19:39 10.2 °C 8.8 °C 1019.9 hPa NNW 1.1 km/h 2.6 km/h 91% 0.0 mm 0 W/m2
19:44 10.2 °C 8.9 °C 1019.9 hPa North 2.6 km/h 5.0 km/h 92% 0.0 mm 0 W/m2
19:49 10.2 °C 8.9 °C 1019.9 hPa North 2.6 km/h 5.0 km/h 92% 0.0 mm 0 W/m2
19:55 10.2 °C 8.9 °C 1019.5 hPa Calm   5.0 km/h 92% 0.0 mm 0 W/m2
20:00 10.2 °C 9.1 °C 1019.5 hPa NNE 1.1 km/h 3.5 km/h 93% 0.0 mm 0 W/m2
20:05 10.2 °C 9.1 °C 1019.5 hPa North 1.1 km/h 3.5 km/h 93% 0.0 mm 0 W/m2
20:10 10.1 °C 9.0 °C 1019.9 hPa North 1.1 km/h 3.5 km/h 93% 0.0 mm 0 W/m2
20:15 10.1 °C 9.0 °C 1019.9 hPa North 1.1 km/h 3.5 km/h 93% 0.0 mm 0 W/m2
20:20 10.1 °C 9.0 °C 1019.5 hPa Calm   3.5 km/h 93% 0.0 mm 0 W/m2
20:25 10.1 °C 9.0 °C 1019.9 hPa Calm   2.6 km/h 93% 0.0 mm 0 W/m2
20:51 10.1 °C 9.0 °C 1019.9 hPa North 2.6 km/h 5.0 km/h 93% 0.0 mm 0 W/m2
20:56 10.1 °C 9.2 °C 1019.9 hPa North 2.6 km/h 5.0 km/h 94% 0.0 mm 0 W/m2
21:01 10.1 °C 9.2 °C 1019.9 hPa NNW 2.6 km/h 5.0 km/h 94% 0.0 mm 0 W/m2
21:06 10.0 °C 9.1 °C 1019.9 hPa NW 1.1 km/h 3.5 km/h 94% 0.0 mm 0 W/m2
21:11 10.0 °C 9.1 °C 1019.9 hPa NW 2.6 km/h 5.0 km/h 94% 0.0 mm 0 W/m2
21:16 10.0 °C 9.1 °C 1019.9 hPa NNW 3.5 km/h 5.0 km/h 94% 0.0 mm 0 W/m2
21:22 10.0 °C 9.1 °C 1019.9 hPa NNW 1.1 km/h 5.0 km/h 94% 0.0 mm 0 W/m2
21:27 10.0 °C 9.1 °C 1019.9 hPa Calm   3.5 km/h 94% 0.0 mm 0 W/m2
21:33 10.0 °C 9.1 °C 1019.9 hPa Calm   2.6 km/h 94% 0.0 mm 0 W/m2
21:38 10.0 °C 9.1 °C 1019.9 hPa NNE 1.1 km/h 2.6 km/h 94% 0.0 mm 0 W/m2
21:43 10.0 °C 9.1 °C 1019.9 hPa North 3.5 km/h 5.0 km/h 94% 0.0 mm 0 W/m2
21:48 10.0 °C 9.1 °C 1019.9 hPa NNW 7.2 km/h 9.7 km/h 94% 0.0 mm 0 W/m2
21:53 10.0 °C 9.1 °C 1019.9 hPa NNW 5.0 km/h 13.4 km/h 94% 0.0 mm 0 W/m2
21:58 10.1 °C 9.2 °C 1020.2 hPa NNW 6.1 km/h 13.4 km/h 94% 0.0 mm 0 W/m2
22:03 10.1 °C 9.2 °C 1019.9 hPa North 5.0 km/h 12.2 km/h 94% 0.0 mm 0 W/m2
22:23 10.0 °C 9.1 °C 1019.9 hPa North 1.1 km/h 8.7 km/h 94% 0.0 mm 0 W/m2
22:28 9.9 °C 9.1 °C 1019.9 hPa NNW 6.1 km/h 8.7 km/h 95% 0.0 mm 0 W/m2
22:33 9.9 °C 9.1 °C 1019.9 hPa NNW 5.0 km/h 9.7 km/h 95% 0.0 mm 0 W/m2
22:36 9.9 °C 9.1 °C 1019.9 hPa NNW 5.0 km/h 9.7 km/h 95% 0.0 mm 0 W/m2
22:41 9.8 °C 9.1 °C 1019.9 hPa NW 5.0 km/h 9.7 km/h 95% 0.0 mm 0 W/m2
22:46 9.7 °C 8.9 °C 1019.9 hPa NW 5.0 km/h 9.7 km/h 95% 0.0 mm 0 W/m2
22:51 9.6 °C 8.8 °C 1019.9 hPa NNW 3.5 km/h 8.7 km/h 95% 0.0 mm 0 W/m2
22:56 9.5 °C 8.7 °C 1019.9 hPa NNW 3.5 km/h 8.7 km/h 95% 0.0 mm 0 W/m2
23:01 9.4 °C 8.7 °C 1019.9 hPa NW 5.0 km/h 8.7 km/h 95% 0.0 mm 0 W/m2
23:06 9.4 °C 8.8 °C 1019.9 hPa NW 3.5 km/h 8.7 km/h 96% 0.0 mm 0 W/m2
23:11 9.3 °C 8.7 °C 1019.9 hPa NNW 3.5 km/h 7.2 km/h 96% 0.0 mm 0 W/m2
23:16 9.3 °C 8.7 °C 1019.9 hPa NNW 3.5 km/h 7.2 km/h 96% 0.0 mm 0 W/m2
23:21 9.2 °C 8.6 °C 1019.5 hPa NNW 2.6 km/h 7.2 km/h 96% 0.0 mm 0 W/m2
23:26 9.2 °C 8.6 °C 1019.5 hPa NNW 3.5 km/h 5.0 km/h 96% 0.0 mm 0 W/m2
23:31 9.1 °C 8.5 °C 1019.5 hPa North 2.6 km/h 5.0 km/h 96% 0.0 mm 0 W/m2
23:36 9.0 °C 8.4 °C 1019.5 hPa North 2.6 km/h 5.0 km/h 96% 0.0 mm 0 W/m2
23:41 8.9 °C 8.3 °C 1019.5 hPa North 2.6 km/h 3.5 km/h 96% 0.0 mm 0 W/m2
23:46 8.7 °C 8.1 °C 1019.5 hPa NNW 3.5 km/h 5.0 km/h 96% 0.0 mm 0 W/m2
23:51 8.7 °C 8.1 °C 1019.2 hPa NNW 2.6 km/h 6.1 km/h 96% 0.0 mm 0 W/m2
23:56 8.7 °C 8.3 °C 1019.2 hPa NNW 2.6 km/h 6.1 km/h 97% 0.0 mm 0 W/m2
Northern Hawkes Bay. New Zealand Historic Data
Compliments of Weather Underground - 2 mb